createdAt,value
2022-07-29T00:00:53.463Z,46
2022-07-29T00:02:53.533Z,46
2022-07-29T00:03:53.510Z,46
2022-07-29T00:04:53.518Z,46.1
2022-07-29T00:05:53.473Z,45.9
2022-07-29T00:07:53.469Z,46.2
2022-07-29T00:08:53.501Z,46.2
2022-07-29T00:09:53.469Z,46.3
2022-07-29T00:10:53.480Z,46.3
2022-07-29T00:11:53.476Z,46.1
2022-07-29T00:12:53.467Z,46.3
2022-07-29T00:13:53.474Z,46.1
2022-07-29T00:15:53.477Z,46.2
2022-07-29T00:16:53.610Z,46.2
2022-07-29T00:17:53.497Z,46
2022-07-29T00:18:53.488Z,46.1
2022-07-29T00:19:53.517Z,45.9
2022-07-29T00:21:53.470Z,46.1
2022-07-29T00:22:53.487Z,46.1
2022-07-29T00:23:53.474Z,46.4
2022-07-29T00:24:53.484Z,46.4
2022-07-29T00:25:53.473Z,46.4
2022-07-29T00:26:53.494Z,46.3
2022-07-29T00:29:53.517Z,46.2
2022-07-29T00:30:53.476Z,46.5
2022-07-29T00:31:53.555Z,46.2
2022-07-29T00:32:53.498Z,46.4
2022-07-29T00:33:53.482Z,46.4
2022-07-29T00:34:53.476Z,46.2
2022-07-29T00:36:53.482Z,46.2
2022-07-29T00:37:53.480Z,46.3
2022-07-29T00:38:53.479Z,46.4
2022-07-29T00:39:53.492Z,46.2
2022-07-29T00:40:53.482Z,46.2
2022-07-29T00:41:53.485Z,46
2022-07-29T00:42:53.492Z,46
2022-07-29T00:43:53.486Z,46.3
2022-07-29T00:44:53.526Z,46.2
2022-07-29T00:45:53.494Z,45.9
2022-07-29T00:46:53.534Z,46.1
2022-07-29T00:47:53.499Z,46.5
2022-07-29T00:50:53.481Z,46.2
2022-07-29T00:51:53.486Z,46.3
2022-07-29T00:53:53.488Z,46.3
2022-07-29T00:54:53.481Z,46.3
2022-07-29T00:55:53.495Z,46.4
2022-07-29T00:57:53.494Z,46.4
2022-07-29T00:58:53.488Z,46.1
2022-07-29T00:59:53.485Z,46.1
2022-07-29T01:00:53.618Z,46.3
2022-07-29T01:01:53.542Z,46.3
2022-07-29T01:02:53.517Z,46.4
2022-07-29T01:04:53.502Z,46.4
2022-07-29T01:05:53.490Z,46.2
2022-07-29T01:06:53.506Z,46.4
2022-07-29T01:07:53.504Z,46.5
2022-07-29T01:08:53.493Z,46.8
2022-07-29T01:10:53.494Z,46.9
2022-07-29T01:11:53.496Z,46.8
2022-07-29T01:12:53.500Z,46.7
2022-07-29T01:14:53.501Z,46.5
2022-07-29T01:15:53.595Z,46.4
2022-07-29T01:16:53.493Z,46.5
2022-07-29T01:18:53.491Z,46.7
2022-07-29T01:19:53.518Z,46.9
2022-07-29T01:20:53.496Z,46.8
2022-07-29T01:21:53.495Z,46.9
2022-07-29T01:22:53.502Z,46.8
2022-07-29T01:23:53.536Z,46.9
2022-07-29T01:24:53.537Z,47
2022-07-29T01:25:55.787Z,47.1
2022-07-29T01:26:53.510Z,47.1
2022-07-29T01:28:53.511Z,47.1
2022-07-29T01:29:53.513Z,47.2
2022-07-29T01:30:53.504Z,47.2
2022-07-29T01:31:59.524Z,47.2
2022-07-29T01:32:53.512Z,47.3
2022-07-29T01:33:53.511Z,47
2022-07-29T01:37:53.518Z,47.3
2022-07-29T01:38:53.513Z,47.4
2022-07-29T01:39:53.515Z,47.3
2022-07-29T01:40:53.529Z,47.5
2022-07-29T01:41:53.507Z,47.7
2022-07-29T01:42:53.517Z,47.8
2022-07-29T01:43:53.526Z,47.7
2022-07-29T01:44:53.516Z,48
2022-07-29T01:45:53.527Z,48.2
2022-07-29T01:47:53.512Z,48.2
2022-07-29T01:49:53.522Z,48
2022-07-29T01:50:53.514Z,48.4
2022-07-29T01:51:53.516Z,48.3
2022-07-29T01:52:53.530Z,48.7
2022-07-29T01:53:53.518Z,48.6
2022-07-29T01:54:53.538Z,48.5
2022-07-29T01:57:53.518Z,48.9
2022-07-29T01:58:53.539Z,48.9
2022-07-29T01:59:53.528Z,48.9
2022-07-29T02:00:53.543Z,48.8
2022-07-29T02:01:54.522Z,48.8
2022-07-29T02:02:53.523Z,48.9
2022-07-29T02:03:53.515Z,48.8
2022-07-29T02:04:53.550Z,48.7
2022-07-29T02:05:53.534Z,48.9
2022-07-29T02:06:53.523Z,48.8
2022-07-29T02:07:53.527Z,48.8
2022-07-29T02:08:53.527Z,48.6
2022-07-29T02:10:53.534Z,48.6
2022-07-29T02:11:53.525Z,48.8
2022-07-29T02:12:53.520Z,49.5
2022-07-29T02:14:53.528Z,49.5
2022-07-29T02:15:53.577Z,49.8
2022-07-29T02:16:53.527Z,49.6
2022-07-29T02:18:53.542Z,49.4
2022-07-29T02:19:53.538Z,50.1
2022-07-29T02:20:53.532Z,49.9
2022-07-29T02:22:53.521Z,49.5
2022-07-29T02:23:53.532Z,49
2022-07-29T02:24:53.532Z,49
2022-07-29T02:25:53.538Z,49
2022-07-29T02:26:53.531Z,49.2
2022-07-29T02:28:53.527Z,49.6
2022-07-29T02:29:53.538Z,49.5
2022-07-29T02:31:53.535Z,49.7
2022-07-29T02:32:53.540Z,50.2
2022-07-29T02:33:53.549Z,50.6
2022-07-29T02:34:53.542Z,50.4
2022-07-29T02:35:53.534Z,50.4
2022-07-29T02:36:53.540Z,50.7
2022-07-29T02:37:53.532Z,51.1
2022-07-29T02:39:53.558Z,50.8
2022-07-29T02:40:53.532Z,50.7
2022-07-29T02:41:53.542Z,50.9
2022-07-29T02:42:53.530Z,50.8
2022-07-29T02:43:53.554Z,51.1
2022-07-29T02:44:53.533Z,51
2022-07-29T02:45:53.538Z,51.4
2022-07-29T02:47:53.563Z,51.2
2022-07-29T02:49:53.563Z,51.8
2022-07-29T02:50:53.552Z,51.4
2022-07-29T02:52:53.550Z,51
2022-07-29T02:53:53.545Z,51.2
2022-07-29T02:54:53.547Z,51.1
2022-07-29T02:55:53.563Z,51.3
2022-07-29T02:57:55.012Z,50.8
2022-07-29T02:58:53.555Z,51.4
2022-07-29T03:00:53.566Z,50.8
2022-07-29T03:01:53.604Z,51.1
2022-07-29T03:02:53.543Z,51.1
2022-07-29T03:03:53.562Z,51.6
2022-07-29T03:04:53.644Z,51.7
2022-07-29T03:05:53.547Z,51.8
2022-07-29T03:06:53.545Z,52.1
2022-07-29T03:07:53.581Z,52.2
2022-07-29T03:08:53.554Z,51.9
2022-07-29T03:10:53.551Z,52.1
2022-07-29T03:11:55.153Z,51.6
2022-07-29T03:13:53.558Z,51.3
2022-07-29T03:14:53.559Z,52
2022-07-29T03:15:53.621Z,52.4
2022-07-29T03:16:53.555Z,53.6
2022-07-29T03:17:53.554Z,53.6
2022-07-29T03:18:53.557Z,53.2
2022-07-29T03:19:53.563Z,54
2022-07-29T03:21:53.562Z,53.6
2022-07-29T03:22:53.562Z,54
2022-07-29T03:23:53.561Z,53.5
2022-07-29T03:24:53.559Z,53.6
2022-07-29T03:25:53.566Z,53.3
2022-07-29T03:26:53.570Z,53.8
2022-07-29T03:27:53.576Z,54.2
2022-07-29T03:28:53.564Z,53.5
2022-07-29T03:29:53.562Z,54.2
2022-07-29T03:30:53.609Z,54.1
2022-07-29T03:31:53.564Z,55.1
2022-07-29T03:32:53.570Z,55.7
2022-07-29T03:34:53.570Z,57.5
2022-07-29T03:36:53.566Z,58.1
2022-07-29T03:37:53.568Z,57.4
2022-07-29T03:38:53.568Z,56.7
2022-07-29T03:39:53.561Z,57
2022-07-29T03:40:53.567Z,57.8
2022-07-29T03:42:53.570Z,57.3
2022-07-29T03:43:53.583Z,56.7
2022-07-29T03:44:53.566Z,58.4
2022-07-29T03:45:53.635Z,58
2022-07-29T03:46:53.574Z,56.5
2022-07-29T03:47:58.420Z,56.5
2022-07-29T03:48:53.635Z,57.3
2022-07-29T03:49:53.577Z,58
2022-07-29T03:50:53.570Z,58.4
2022-07-29T03:52:53.565Z,56.4
2022-07-29T03:53:53.581Z,57.7
2022-07-29T03:55:53.576Z,57.9
2022-07-29T03:56:53.571Z,56.4
2022-07-29T03:57:53.576Z,57.1
2022-07-29T03:58:53.573Z,56.5
2022-07-29T03:59:53.598Z,55.9
2022-07-29T04:01:53.654Z,56.1
2022-07-29T04:03:53.608Z,56.5
2022-07-29T04:04:53.585Z,56.3
2022-07-29T04:06:53.580Z,56.6
2022-07-29T04:07:53.618Z,57
2022-07-29T04:08:53.586Z,57.3
2022-07-29T04:09:53.587Z,56.1
2022-07-29T04:10:53.580Z,56.1
2022-07-29T04:12:01.556Z,55.8
2022-07-29T04:12:53.588Z,56.1
2022-07-29T04:15:53.658Z,56.3
2022-07-29T04:16:53.591Z,56.3
2022-07-29T04:17:53.590Z,56.2
2022-07-29T04:18:53.590Z,56.1
2022-07-29T04:19:53.589Z,56.2
2022-07-29T04:20:53.586Z,55.7
2022-07-29T04:23:54.045Z,55.7
2022-07-29T04:24:53.593Z,55.9
2022-07-29T04:25:53.585Z,55.8
2022-07-29T04:27:53.602Z,55.7
2022-07-29T04:28:53.584Z,56.1
2022-07-29T04:29:56.789Z,56.4
2022-07-29T04:30:53.629Z,56.6
2022-07-29T04:31:53.603Z,57.9
2022-07-29T04:32:53.592Z,59.3
2022-07-29T04:33:53.593Z,58.1
2022-07-29T04:35:55.631Z,59.3
2022-07-29T04:36:53.593Z,60.4
2022-07-29T04:37:53.589Z,63
2022-07-29T04:38:53.601Z,62
2022-07-29T04:39:53.593Z,62.4
2022-07-29T04:41:54.946Z,63.8
2022-07-29T04:43:53.608Z,64.7
2022-07-29T04:46:53.609Z,62.8
2022-07-29T04:48:53.651Z,63.4
2022-07-29T04:49:53.599Z,64.7
2022-07-29T04:50:53.594Z,64.7
2022-07-29T04:52:53.615Z,65.3
2022-07-29T04:53:53.609Z,65.5
2022-07-29T04:54:53.602Z,65.2
2022-07-29T04:56:53.597Z,64.4
2022-07-29T04:57:53.611Z,64.7
2022-07-29T04:58:53.608Z,64.8
2022-07-29T04:59:53.649Z,65.2
2022-07-29T05:00:53.615Z,65.4
2022-07-29T05:01:53.658Z,64.6
2022-07-29T05:06:53.609Z,64.8
2022-07-29T05:07:53.602Z,64.4
2022-07-29T05:09:53.659Z,64.5
2022-07-29T05:11:53.609Z,64.8
2022-07-29T05:12:53.618Z,64.6
2022-07-29T05:13:53.616Z,64.6
2022-07-29T05:14:53.606Z,65.4
2022-07-29T05:18:53.608Z,65.3
2022-07-29T05:19:53.608Z,65.3
2022-07-29T05:20:53.609Z,65.5
2022-07-29T05:21:53.617Z,65.3
2022-07-29T05:22:53.605Z,65.8
2022-07-29T05:23:53.612Z,65.2
2022-07-29T05:24:53.607Z,65.1
2022-07-29T05:25:53.626Z,64.7
2022-07-29T05:27:53.610Z,65
2022-07-29T05:30:53.710Z,64.4
2022-07-29T05:31:53.610Z,64.5
2022-07-29T05:32:53.612Z,64.9
2022-07-29T05:33:53.643Z,64.2
2022-07-29T05:34:53.608Z,64.6
2022-07-29T05:35:56.242Z,63.9
2022-07-29T05:36:53.635Z,63.3
2022-07-29T05:40:53.637Z,63.1
2022-07-29T05:43:53.621Z,62.7
2022-07-29T05:44:53.628Z,62.5
2022-07-29T05:49:53.622Z,63.1
2022-07-29T05:51:53.628Z,62.6
2022-07-29T05:53:53.632Z,63.6
2022-07-29T05:54:53.624Z,62.9
2022-07-29T05:56:00.149Z,62.9
2022-07-29T05:56:53.644Z,63.4
2022-07-29T06:00:53.633Z,64.3
2022-07-29T06:01:53.694Z,64.3
2022-07-29T06:02:53.636Z,65.5
2022-07-29T06:03:53.771Z,64.9
2022-07-29T06:04:53.787Z,65.2
2022-07-29T06:05:53.642Z,65.6
2022-07-29T06:06:53.634Z,66.9
2022-07-29T06:07:53.640Z,65.8
2022-07-29T06:10:53.641Z,64.2
2022-07-29T06:12:53.634Z,64.2
2022-07-29T06:13:53.644Z,63.5
2022-07-29T06:15:53.674Z,64
2022-07-29T06:16:53.640Z,64.6
2022-07-29T06:18:53.645Z,65.5
2022-07-29T06:20:53.642Z,65.9
2022-07-29T06:21:53.634Z,66.5
2022-07-29T06:25:53.638Z,67.2
2022-07-29T06:26:53.644Z,67.6
2022-07-29T06:27:53.643Z,67.7
2022-07-29T06:28:53.641Z,67.5
2022-07-29T06:29:53.639Z,67.7
2022-07-29T06:30:53.719Z,67.7
2022-07-29T06:31:53.642Z,68.6
2022-07-29T06:33:54.688Z,67.9
2022-07-29T06:35:06.914Z,69.8
2022-07-29T06:35:55.279Z,69.4
2022-07-29T06:36:53.654Z,70.5
2022-07-29T06:38:53.711Z,71.3
2022-07-29T06:39:57.907Z,70.9
2022-07-29T06:41:53.652Z,71
2022-07-29T06:42:53.640Z,70.6
2022-07-29T06:43:55.254Z,72.1
2022-07-29T06:46:53.653Z,70.7
2022-07-29T06:47:53.651Z,70.5
2022-07-29T06:49:53.649Z,70.1
2022-07-29T06:50:53.660Z,69.8
2022-07-29T06:51:53.656Z,69.4
2022-07-29T06:52:53.662Z,69.8
2022-07-29T06:54:53.657Z,67.6
2022-07-29T06:56:53.654Z,67.2
2022-07-29T06:57:53.649Z,66.9
2022-07-29T06:58:53.651Z,67.4
2022-07-29T06:59:53.651Z,67
2022-07-29T07:00:53.694Z,68.2
2022-07-29T07:02:53.759Z,69.5
2022-07-29T07:04:53.668Z,70.4
2022-07-29T07:05:53.659Z,69.7
2022-07-29T07:07:53.659Z,66.9
2022-07-29T07:08:53.656Z,66.7
2022-07-29T07:09:53.685Z,67
2022-07-29T07:11:53.663Z,66.6
2022-07-29T07:13:53.659Z,67.3
2022-07-29T07:15:53.663Z,66.9
2022-07-29T07:16:53.688Z,66.7
2022-07-29T07:17:53.692Z,66.4
2022-07-29T07:18:53.657Z,64.9
2022-07-29T07:19:53.666Z,65.5
2022-07-29T07:20:53.669Z,66.3
2022-07-29T07:21:53.687Z,67.3
2022-07-29T07:23:53.664Z,67.2
2022-07-29T07:24:53.674Z,66.3
2022-07-29T07:25:53.671Z,65.2
2022-07-29T07:26:53.659Z,65.1
2022-07-29T07:27:53.671Z,64.9
2022-07-29T07:28:53.666Z,64.9
2022-07-29T07:29:53.672Z,64.5
2022-07-29T07:30:53.667Z,64.2
2022-07-29T07:31:57.562Z,64.5
2022-07-29T07:32:53.664Z,66
2022-07-29T07:34:53.670Z,65.2
2022-07-29T07:35:53.673Z,65
2022-07-29T07:36:53.671Z,65.3
2022-07-29T07:38:53.668Z,63.1
2022-07-29T07:39:53.686Z,63.3
2022-07-29T07:40:53.678Z,64.1
2022-07-29T07:42:53.677Z,64.8
2022-07-29T07:43:53.667Z,65.1
2022-07-29T07:45:12.479Z,66.1
2022-07-29T07:45:53.832Z,65.4
2022-07-29T07:48:53.782Z,65.2
2022-07-29T07:49:53.677Z,64.2
2022-07-29T07:50:53.683Z,64.9
2022-07-29T07:51:53.681Z,65.3
2022-07-29T07:52:53.679Z,64.2
2022-07-29T07:53:53.684Z,63.7
2022-07-29T07:56:09.968Z,62.8
2022-07-29T07:56:53.687Z,64.2
2022-07-29T07:57:54.069Z,65.2
2022-07-29T07:58:53.688Z,65.8
2022-07-29T07:59:53.675Z,64.5
2022-07-29T08:00:53.779Z,63.6
2022-07-29T08:02:53.714Z,63.4
2022-07-29T08:03:53.684Z,63.2
2022-07-29T08:04:53.685Z,63.4
2022-07-29T08:05:53.685Z,64.3
2022-07-29T08:06:53.689Z,64.5
2022-07-29T08:08:56.230Z,63.2
2022-07-29T08:09:53.704Z,63.3
2022-07-29T08:10:53.706Z,63.2
2022-07-29T08:11:53.683Z,63.1
2022-07-29T08:12:53.699Z,62.4
2022-07-29T08:13:53.684Z,62.4
2022-07-29T08:14:53.690Z,62.1
2022-07-29T08:17:53.692Z,62.7
2022-07-29T08:18:53.878Z,62.2
2022-07-29T08:19:53.693Z,62.6
2022-07-29T08:20:53.694Z,62.6
2022-07-29T08:21:54.102Z,62.9
2022-07-29T08:22:53.697Z,61.8
2022-07-29T08:24:00.688Z,62.6
2022-07-29T08:24:54.850Z,62.7
2022-07-29T08:25:54.924Z,63
2022-07-29T08:27:53.694Z,63.1
2022-07-29T08:29:53.694Z,63.4
2022-07-29T08:30:53.704Z,64.3
2022-07-29T08:31:54.173Z,63.6
2022-07-29T08:32:54.807Z,62.6
2022-07-29T08:33:53.698Z,63.1
2022-07-29T08:34:53.701Z,63.2
2022-07-29T08:35:53.695Z,63.8
2022-07-29T08:37:53.709Z,64.1
2022-07-29T08:38:53.718Z,65
2022-07-29T08:39:53.692Z,66.1
2022-07-29T08:40:53.694Z,65.3
2022-07-29T08:41:57.428Z,65.4
2022-07-29T08:42:53.706Z,66.2
2022-07-29T08:43:53.695Z,67.1
2022-07-29T08:44:53.717Z,67.3
2022-07-29T08:45:53.718Z,67.3
2022-07-29T08:46:53.700Z,67.2
2022-07-29T08:47:53.709Z,67.2
2022-07-29T08:48:53.775Z,67.5
2022-07-29T08:50:53.707Z,67.4
2022-07-29T08:52:59.394Z,68.7
2022-07-29T08:53:53.712Z,69
2022-07-29T08:54:53.721Z,69.8
2022-07-29T08:55:53.708Z,70.7
2022-07-29T08:56:54.901Z,71.3
2022-07-29T08:58:53.707Z,73
2022-07-29T08:59:53.714Z,74.4
2022-07-29T09:00:53.745Z,74.2
2022-07-29T09:01:54.212Z,74.3
2022-07-29T09:02:53.707Z,73.1
2022-07-29T09:03:53.725Z,73.6
2022-07-29T09:04:53.708Z,73
2022-07-29T09:06:53.706Z,72.5
2022-07-29T09:07:53.717Z,72.4
2022-07-29T09:08:53.711Z,72.6
2022-07-29T09:09:53.714Z,72.9
2022-07-29T09:11:53.975Z,73.1
2022-07-29T09:12:53.718Z,73.4
2022-07-29T09:13:53.780Z,72.4
2022-07-29T09:14:53.713Z,72.5
2022-07-29T09:15:53.714Z,72.8
2022-07-29T09:16:54.149Z,72.5
2022-07-29T09:17:53.722Z,72.7
2022-07-29T09:20:53.717Z,72.2
2022-07-29T09:21:53.718Z,72.3
2022-07-29T09:22:53.722Z,71.5
2022-07-29T09:23:53.720Z,72.5
2022-07-29T09:24:53.720Z,72.9
2022-07-29T09:25:53.722Z,73
2022-07-29T09:26:53.939Z,72.9
2022-07-29T09:27:53.728Z,73.7
2022-07-29T09:28:53.721Z,74.2
2022-07-29T09:32:53.725Z,74.4
2022-07-29T09:33:53.719Z,73.5
2022-07-29T09:34:58.261Z,73.2
2022-07-29T09:35:57.080Z,73.3
2022-07-29T09:36:53.993Z,73.4
2022-07-29T09:38:53.722Z,74.4
2022-07-29T09:39:53.723Z,74.9
2022-07-29T09:41:53.733Z,74.8
2022-07-29T09:42:53.743Z,75.7
2022-07-29T09:43:53.729Z,76.4
2022-07-29T09:44:53.730Z,77.1
2022-07-29T09:45:53.742Z,77.2
2022-07-29T09:46:54.136Z,78.6
2022-07-29T09:47:53.729Z,78.6
2022-07-29T09:48:53.787Z,78.3
2022-07-29T09:49:53.737Z,79.1
2022-07-29T09:51:53.735Z,78.8
2022-07-29T09:52:53.730Z,78.9
2022-07-29T09:53:53.768Z,78.5
2022-07-29T09:54:53.746Z,79.5
2022-07-29T09:55:53.727Z,79.2
2022-07-29T09:56:54.131Z,78.8
2022-07-29T09:57:53.739Z,78.2
2022-07-29T09:59:53.737Z,77.2
2022-07-29T10:00:53.832Z,76.6
2022-07-29T10:01:54.130Z,76.5
2022-07-29T10:02:53.833Z,76.5
2022-07-29T10:03:53.740Z,75.9
2022-07-29T10:04:53.734Z,75.1
2022-07-29T10:05:53.751Z,74.3
2022-07-29T10:06:53.744Z,73.5
2022-07-29T10:07:54.410Z,72.1
2022-07-29T10:08:53.744Z,72.3
2022-07-29T10:09:53.734Z,71.4
2022-07-29T10:10:53.758Z,70.6
2022-07-29T10:12:53.741Z,71.1
2022-07-29T10:13:53.743Z,70.9
2022-07-29T10:14:53.740Z,70.2
2022-07-29T10:15:53.791Z,69
2022-07-29T10:16:53.747Z,69.2
2022-07-29T10:17:53.788Z,69.7
2022-07-29T10:18:53.745Z,69.9
2022-07-29T10:20:53.744Z,71.6
2022-07-29T10:21:57.759Z,71.7
2022-07-29T10:22:54.308Z,72
2022-07-29T10:23:53.748Z,70.9
2022-07-29T10:24:53.751Z,71.2
2022-07-29T10:25:53.751Z,70.4
2022-07-29T10:26:53.755Z,71.4
2022-07-29T10:27:53.805Z,71
2022-07-29T10:28:53.757Z,71
2022-07-29T10:30:53.750Z,71.4
2022-07-29T10:31:53.992Z,71.6
2022-07-29T10:33:53.750Z,71
2022-07-29T10:34:53.774Z,71.2
2022-07-29T10:35:53.755Z,69.4
2022-07-29T10:36:53.751Z,69.8
2022-07-29T10:37:55.023Z,70.5
2022-07-29T10:41:54.032Z,70
2022-07-29T10:42:53.799Z,69.4
2022-07-29T10:44:53.758Z,71
2022-07-29T10:45:53.760Z,70.2
2022-07-29T10:46:53.862Z,70
2022-07-29T10:47:53.798Z,70.5
2022-07-29T10:48:53.800Z,70.1
2022-07-29T10:49:53.749Z,70.5
2022-07-29T10:50:53.761Z,70.9
2022-07-29T10:51:54.240Z,71.1
2022-07-29T10:52:53.782Z,70.5
2022-07-29T10:55:53.820Z,69.9
2022-07-29T10:56:53.761Z,68.9
2022-07-29T10:57:54.866Z,69.6
2022-07-29T10:58:53.765Z,68.7
2022-07-29T10:59:53.776Z,69
2022-07-29T11:00:53.781Z,68.7
2022-07-29T11:02:53.859Z,69.2
2022-07-29T11:03:53.938Z,68.6
2022-07-29T11:05:53.769Z,68.6
2022-07-29T11:06:53.771Z,68.1
2022-07-29T11:07:53.772Z,68.3
2022-07-29T11:09:53.762Z,67.6
2022-07-29T11:10:53.765Z,67
2022-07-29T11:11:53.768Z,67.5
2022-07-29T11:12:53.763Z,67.6
2022-07-29T11:13:53.775Z,66.8
2022-07-29T11:15:53.780Z,66
2022-07-29T11:16:53.773Z,65.9
2022-07-29T11:17:53.779Z,65.9
2022-07-29T11:19:53.775Z,65.6
2022-07-29T11:20:53.806Z,65.7
2022-07-29T11:23:53.778Z,64.8
2022-07-29T11:24:53.792Z,64.3
2022-07-29T11:26:57.506Z,65.1
2022-07-29T11:28:53.786Z,63.9
2022-07-29T11:29:53.777Z,62.9
2022-07-29T11:30:53.773Z,62.9
2022-07-29T11:31:53.867Z,62.3
2022-07-29T11:32:53.782Z,62.8
2022-07-29T11:33:56.361Z,60
2022-07-29T11:34:53.785Z,61.1
2022-07-29T11:37:57.791Z,59.3
2022-07-29T11:38:53.784Z,59.1
2022-07-29T11:40:53.783Z,59.4
2022-07-29T11:41:53.810Z,59.3
2022-07-29T11:42:53.781Z,59
2022-07-29T11:43:53.790Z,59.7
2022-07-29T11:44:53.782Z,60.5
2022-07-29T11:45:53.792Z,60.7
2022-07-29T11:46:54.277Z,60.6
2022-07-29T11:49:53.790Z,61.3
2022-07-29T11:50:53.787Z,60.9
2022-07-29T11:51:53.784Z,60.4
2022-07-29T11:52:53.814Z,60
2022-07-29T11:53:53.805Z,61.1
2022-07-29T11:54:58.090Z,59.8
2022-07-29T11:55:53.794Z,59.2
2022-07-29T11:58:53.796Z,58.3
2022-07-29T11:59:53.798Z,56.8
2022-07-29T12:00:55.622Z,57.5
2022-07-29T12:02:02.416Z,56.2
2022-07-29T12:02:53.863Z,56.1
2022-07-29T12:03:53.840Z,55.3
2022-07-29T12:04:53.789Z,54.8
2022-07-29T12:05:53.810Z,53.2
2022-07-29T12:06:53.806Z,53.9
2022-07-29T12:08:53.799Z,53.7
2022-07-29T12:10:53.796Z,52
2022-07-29T12:11:53.801Z,52.4
2022-07-29T12:12:53.802Z,53
2022-07-29T12:13:53.802Z,52.8
2022-07-29T12:14:53.808Z,53.4
2022-07-29T12:15:53.893Z,54
2022-07-29T12:16:53.868Z,54.3
2022-07-29T12:19:53.799Z,53.7
2022-07-29T12:20:53.797Z,53.9
2022-07-29T12:21:56.776Z,54.5
2022-07-29T12:22:53.806Z,54.8
2022-07-29T12:23:53.816Z,54.2
2022-07-29T12:25:02.215Z,53.3
2022-07-29T12:25:53.807Z,53.7
2022-07-29T12:26:53.823Z,52.6
2022-07-29T12:27:53.814Z,52.7
2022-07-29T12:28:54.787Z,53.3
2022-07-29T12:29:53.813Z,52.9
2022-07-29T12:31:53.848Z,51.5
2022-07-29T12:32:53.821Z,51.6
2022-07-29T12:33:53.809Z,52.5
2022-07-29T12:34:53.816Z,52.6
2022-07-29T12:36:06.153Z,51.8
2022-07-29T12:36:53.804Z,51.3
2022-07-29T12:37:53.814Z,51.7
2022-07-29T12:40:53.811Z,52.3
2022-07-29T12:41:53.815Z,51.9
2022-07-29T12:43:53.817Z,51.9
2022-07-29T12:44:53.816Z,52.4
2022-07-29T12:45:53.813Z,53
2022-07-29T12:46:53.881Z,53.1
2022-07-29T12:47:53.821Z,52.3
2022-07-29T12:48:53.859Z,52.9
2022-07-29T12:49:53.818Z,53.7
2022-07-29T12:50:53.824Z,53.8
2022-07-29T12:52:53.821Z,54.5
2022-07-29T12:53:53.825Z,54.1
2022-07-29T12:54:53.822Z,53.6
2022-07-29T12:55:53.829Z,54
2022-07-29T12:57:53.836Z,54.6
2022-07-29T12:58:53.826Z,54.6
2022-07-29T13:01:53.821Z,53.9
2022-07-29T13:02:53.912Z,53.8
2022-07-29T13:03:57.455Z,53.4
2022-07-29T13:04:53.829Z,53.6
2022-07-29T13:05:53.835Z,53.5
2022-07-29T13:06:53.829Z,52.9
2022-07-29T13:07:55.658Z,53.4
2022-07-29T13:08:53.836Z,53.5
2022-07-29T13:09:53.848Z,53.6
2022-07-29T13:10:53.838Z,53.5
2022-07-29T13:11:53.880Z,54.2
2022-07-29T13:14:06.001Z,53.8
2022-07-29T13:14:53.836Z,54.3
2022-07-29T13:15:53.838Z,54.8
2022-07-29T13:16:54.324Z,54.4
2022-07-29T13:17:53.830Z,54.1
2022-07-29T13:18:53.885Z,54.7
2022-07-29T13:19:53.837Z,54.2
2022-07-29T13:22:53.831Z,54.6
2022-07-29T13:23:53.835Z,54.5
2022-07-29T13:24:53.853Z,54.8
2022-07-29T13:25:53.842Z,55.9
2022-07-29T13:26:53.858Z,55.5
2022-07-29T13:27:53.846Z,54.4
2022-07-29T13:28:53.835Z,54.4
2022-07-29T13:29:53.861Z,54.8
2022-07-29T13:30:53.925Z,55
2022-07-29T13:31:53.845Z,54.7
2022-07-29T13:32:53.887Z,54.2
2022-07-29T13:34:53.849Z,55
2022-07-29T13:35:53.849Z,54.3
2022-07-29T13:37:53.844Z,55.6
2022-07-29T13:38:53.864Z,55
2022-07-29T13:39:53.845Z,54.2
2022-07-29T13:40:53.847Z,54.7
2022-07-29T13:43:53.848Z,54.3
2022-07-29T13:44:53.853Z,55.1
2022-07-29T13:45:53.922Z,54.4
2022-07-29T13:46:53.875Z,54.1
2022-07-29T13:47:53.847Z,53.8
2022-07-29T13:48:53.890Z,54.1
2022-07-29T13:49:53.844Z,54.5
2022-07-29T13:50:53.849Z,54.1
2022-07-29T13:53:53.859Z,53.8
2022-07-29T13:54:53.849Z,53.9
2022-07-29T13:55:53.846Z,53.5
2022-07-29T13:56:53.847Z,53.5
2022-07-29T13:57:53.859Z,54.1
2022-07-29T13:58:53.855Z,55.6
2022-07-29T13:59:54.585Z,55.5
2022-07-29T14:01:53.860Z,56.6
2022-07-29T14:02:53.867Z,54.4
2022-07-29T14:04:53.983Z,54.7
2022-07-29T14:05:53.860Z,54.8
2022-07-29T14:06:53.860Z,54.9
2022-07-29T14:07:53.867Z,54.9
2022-07-29T14:08:53.857Z,55.2
2022-07-29T14:09:53.872Z,54.4
2022-07-29T14:11:53.857Z,54.2
2022-07-29T14:15:53.872Z,55.2
2022-07-29T14:17:00.268Z,55
2022-07-29T14:17:53.874Z,55
2022-07-29T14:19:53.868Z,54.1
2022-07-29T14:20:53.886Z,54.2
2022-07-29T14:22:53.884Z,54.7
2022-07-29T14:25:53.885Z,54.8
2022-07-29T14:35:53.867Z,55.3
2022-07-29T14:36:53.873Z,55.1
2022-07-29T14:38:53.879Z,54.6
2022-07-29T14:40:53.889Z,54.7
2022-07-29T14:41:53.877Z,55.2
2022-07-29T14:43:53.872Z,54.8
2022-07-29T14:44:53.889Z,54.7
2022-07-29T14:45:57.544Z,54.5
2022-07-29T14:46:53.916Z,54.8
2022-07-29T14:47:57.165Z,55.4
2022-07-29T14:48:53.913Z,55.2
2022-07-29T14:49:53.873Z,54.6
2022-07-29T14:50:53.886Z,54.8
2022-07-29T14:51:53.881Z,54.9
2022-07-29T14:52:53.881Z,55
2022-07-29T14:53:53.890Z,54.7
2022-07-29T14:54:53.904Z,54.4
2022-07-29T14:57:58.673Z,55.8
2022-07-29T14:58:53.882Z,54.6
2022-07-29T15:00:53.979Z,53.4
2022-07-29T15:01:53.978Z,53.1
2022-07-29T15:03:02.625Z,54.1
2022-07-29T15:04:53.885Z,54.3
2022-07-29T15:05:53.899Z,54.7
2022-07-29T15:06:53.892Z,53.6
2022-07-29T15:07:53.902Z,53.8
2022-07-29T15:09:58.029Z,53.8
2022-07-29T15:10:53.886Z,53.5
2022-07-29T15:11:53.898Z,53.6
2022-07-29T15:12:53.891Z,53.2
2022-07-29T15:13:53.889Z,53.6
2022-07-29T15:15:58.291Z,53.8
2022-07-29T15:18:53.889Z,53.1
2022-07-29T15:19:53.915Z,53
2022-07-29T15:20:53.896Z,52.3
2022-07-29T15:21:54.854Z,52.6
2022-07-29T15:22:53.928Z,52.6
2022-07-29T15:23:53.912Z,52.7
2022-07-29T15:25:53.910Z,52.5
2022-07-29T15:26:53.907Z,53
2022-07-29T15:27:55.669Z,53.1
2022-07-29T15:28:53.906Z,53.3
2022-07-29T15:30:53.910Z,53.5
2022-07-29T15:31:53.945Z,53.4
2022-07-29T15:32:55.980Z,53.5
2022-07-29T15:33:58.091Z,53.7
2022-07-29T15:34:53.911Z,53.5
2022-07-29T15:35:53.902Z,53.7
2022-07-29T15:36:54.201Z,53.8
2022-07-29T15:39:58.296Z,54.3
2022-07-29T15:40:53.922Z,53.9
2022-07-29T15:41:53.915Z,54.4
2022-07-29T15:42:53.939Z,54.6
2022-07-29T15:43:53.914Z,54.1
2022-07-29T15:44:53.916Z,53.6
2022-07-29T15:45:53.954Z,53.7
2022-07-29T15:46:53.912Z,54
2022-07-29T15:47:53.908Z,53.4
2022-07-29T15:50:53.986Z,52.8
2022-07-29T15:51:58.206Z,53
2022-07-29T15:52:53.913Z,52.9
2022-07-29T15:53:53.918Z,52.8
2022-07-29T15:54:53.918Z,52.6
2022-07-29T15:55:53.912Z,52.7
2022-07-29T15:57:58.462Z,52.6
2022-07-29T15:58:53.912Z,52.5
2022-07-29T15:59:53.917Z,52.7
2022-07-29T16:00:54.027Z,52.6
2022-07-29T16:01:53.911Z,52.7
2022-07-29T16:02:53.915Z,52.9
2022-07-29T16:03:54.002Z,53.7
2022-07-29T16:04:53.918Z,53.6
2022-07-29T16:05:53.925Z,53.9
2022-07-29T16:06:53.958Z,54.3
2022-07-29T16:07:53.926Z,54.3
2022-07-29T16:08:53.920Z,54.5
2022-07-29T16:11:53.922Z,53.4
2022-07-29T16:14:53.986Z,53.3
2022-07-29T16:16:02.673Z,53.4
2022-07-29T16:16:54.080Z,53.4
2022-07-29T16:17:53.927Z,53.5
2022-07-29T16:18:53.937Z,53.3
2022-07-29T16:20:53.938Z,53.4
2022-07-29T16:22:53.947Z,53.8
2022-07-29T16:23:53.930Z,54.3
2022-07-29T16:26:01.602Z,54.1
2022-07-29T16:26:53.940Z,54.5
2022-07-29T16:27:58.114Z,53.4
2022-07-29T16:28:53.937Z,53
2022-07-29T16:29:53.936Z,53.3
2022-07-29T16:30:53.938Z,53.6
2022-07-29T16:32:53.984Z,53.8
2022-07-29T16:33:55.639Z,54
2022-07-29T16:34:53.959Z,54.1
2022-07-29T16:35:53.938Z,54.6
2022-07-29T16:36:53.945Z,54.7
2022-07-29T16:37:53.942Z,54
2022-07-29T16:38:53.945Z,54.2
2022-07-29T16:39:53.953Z,54
2022-07-29T16:40:53.953Z,54
2022-07-29T16:42:53.955Z,54.1
2022-07-29T16:43:53.949Z,54.2
2022-07-29T16:45:54.014Z,53.7
2022-07-29T16:47:58.500Z,53.6
2022-07-29T16:48:54.050Z,53.6
2022-07-29T16:49:53.955Z,53.2
2022-07-29T16:50:53.941Z,52.9
2022-07-29T16:51:53.945Z,52.7
2022-07-29T16:53:53.949Z,52.8
2022-07-29T16:55:53.951Z,53.8
2022-07-29T16:56:53.948Z,53.4
2022-07-29T16:57:53.958Z,53.5
2022-07-29T16:58:53.947Z,53.3
2022-07-29T16:59:53.947Z,53.1
2022-07-29T17:00:54.017Z,53.3
2022-07-29T17:01:54.047Z,51.7
2022-07-29T17:03:57.043Z,51.7
2022-07-29T17:04:53.967Z,52.7
2022-07-29T17:06:53.967Z,51.6
2022-07-29T17:07:53.967Z,51.3
2022-07-29T17:08:53.953Z,51.7
2022-07-29T17:09:56.402Z,51.3
2022-07-29T17:10:53.956Z,52.5
2022-07-29T17:11:54.880Z,50.5
2022-07-29T17:12:53.964Z,49.3
2022-07-29T17:14:53.959Z,49.6
2022-07-29T17:15:58.772Z,50.9
2022-07-29T17:17:01.319Z,49.4
2022-07-29T17:17:55.148Z,50.1
2022-07-29T17:19:53.963Z,49.4
2022-07-29T17:20:53.964Z,50